sensor_id;sensor_type;location;lat;lon;timestamp;pressure;altitude;pressure_sealevel;temperature;humidity
83733;BME280;73710;49.968;8.338;2023-11-19T05:05:15;100275.91;;;9.23;100.00
83733;BME280;73710;49.968;8.338;2023-11-19T05:07:41;100264.63;;;9.21;100.00
83733;BME280;73710;49.968;8.338;2023-11-19T05:10:06;100254.44;;;9.15;100.00
83733;BME280;73710;49.968;8.338;2023-11-19T05:12:32;100267.19;;;9.05;100.00
83733;BME280;73710;49.968;8.338;2023-11-19T05:14:57;100254.19;;;9.02;100.00
83733;BME280;73710;49.968;8.338;2023-11-19T05:17:23;100272.47;;;9.03;100.00
83733;BME280;73710;49.968;8.338;2023-11-19T05:19:48;100273.88;;;9.11;100.00
83733;BME280;73710;49.968;8.338;2023-11-19T05:22:14;100269.50;;;9.11;100.00
83733;BME280;73710;49.968;8.338;2023-11-19T05:24:39;100279.75;;;9.16;100.00
83733;BME280;73710;49.968;8.338;2023-11-19T05:27:06;100269.78;;;9.22;100.00
83733;BME280;73710;49.968;8.338;2023-11-19T05:29:32;100283.69;;;9.24;100.00
83733;BME280;73710;49.968;8.338;2023-11-19T05:31:58;100278.22;;;9.29;100.00
83733;BME280;73710;49.968;8.338;2023-11-19T05:34:23;100260.63;;;9.31;100.00
83733;BME280;73710;49.968;8.338;2023-11-19T05:36:50;100260.63;;;9.31;100.00
83733;BME280;73710;49.968;8.338;2023-11-19T05:39:16;100253.59;;;9.31;100.00
83733;BME280;73710;49.968;8.338;2023-11-19T05:41:41;100256.22;;;9.31;100.00
83733;BME280;73710;49.968;8.338;2023-11-19T05:44:06;100259.41;;;9.38;100.00
83733;BME280;73710;49.968;8.338;2023-11-19T05:46:32;100266.09;;;9.43;100.00
83733;BME280;73710;49.968;8.338;2023-11-19T05:48:57;100254.59;;;9.46;100.00
83733;BME280;73710;49.968;8.338;2023-11-19T05:51:23;100246.00;;;9.42;100.00
83733;BME280;73710;49.968;8.338;2023-11-19T05:53:49;100260.00;;;9.43;100.00
83733;BME280;73710;49.968;8.338;2023-11-19T05:56:15;100264.25;;;9.45;100.00
83733;BME280;73710;49.968;8.338;2023-11-19T05:58:46;100267.66;;;9.47;100.00
83733;BME280;73710;49.968;8.338;2023-11-19T06:01:13;100260.53;;;9.49;100.00
83733;BME280;73710;49.968;8.338;2023-11-19T06:03:38;100266.66;;;9.50;100.00
83733;BME280;73710;49.968;8.338;2023-11-19T06:06:04;100270.03;;;9.52;100.00
83733;BME280;73710;49.968;8.338;2023-11-19T06:08:30;100272.66;;;9.52;100.00
83733;BME280;73710;49.968;8.338;2023-11-19T06:10:55;100271.66;;;9.54;100.00
83733;BME280;73710;49.968;8.338;2023-11-19T06:13:21;100277.75;;;9.55;100.00
83733;BME280;73710;49.968;8.338;2023-11-19T06:15:46;100274.22;;;9.56;100.00
83733;BME280;73710;49.968;8.338;2023-11-19T06:18:12;100274.13;;;9.57;100.00
83733;BME280;73710;49.968;8.338;2023-11-19T06:20:37;100273.22;;;9.58;100.00
83733;BME280;73710;49.968;8.338;2023-11-19T06:23:02;100274.97;;;9.58;100.00
83733;BME280;73710;49.968;8.338;2023-11-19T06:25:28;100276.66;;;9.59;100.00
83733;BME280;73710;49.968;8.338;2023-11-19T06:27:53;100277.53;;;9.59;100.00
83733;BME280;73710;49.968;8.338;2023-11-19T06:30:19;100290.72;;;9.58;100.00
83733;BME280;73710;49.968;8.338;2023-11-19T06:32:44;100282.69;;;9.61;100.00
83733;BME280;73710;49.968;8.338;2023-11-19T06:35:10;100294.91;;;9.62;100.00
83733;BME280;73710;49.968;8.338;2023-11-19T06:37:38;100289.66;;;9.62;100.00
83733;BME280;73710;49.968;8.338;2023-11-19T06:40:04;100285.72;;;9.70;100.00
83733;BME280;73710;49.968;8.338;2023-11-19T06:42:30;100291.88;;;9.69;100.00
83733;BME280;73710;49.968;8.338;2023-11-19T06:44:55;100296.75;;;9.60;100.00
83733;BME280;73710;49.968;8.338;2023-11-19T06:47:24;100296.91;;;9.57;100.00
83733;BME280;73710;49.968;8.338;2023-11-19T06:49:50;100288.47;;;9.50;100.00
83733;BME280;73710;49.968;8.338;2023-11-19T06:52:16;100289.34;;;9.34;100.00
83733;BME280;73710;49.968;8.338;2023-11-19T06:54:41;100289.25;;;9.18;100.00
83733;BME280;73710;49.968;8.338;2023-11-19T06:57:06;100284.06;;;9.17;100.00
83733;BME280;73710;49.968;8.338;2023-11-19T06:59:32;100275.88;;;9.05;100.00
83733;BME280;73710;49.968;8.338;2023-11-19T07:01:58;100265.06;;;8.94;100.00
83733;BME280;73710;49.968;8.338;2023-11-19T07:04:24;100270.22;;;8.96;100.00
83733;BME280;73710;49.968;8.338;2023-11-19T07:06:49;100275.09;;;9.03;100.00
83733;BME280;73710;49.968;8.338;2023-11-19T07:09:15;100285.94;;;9.15;100.00
83733;BME280;73710;49.968;8.338;2023-11-19T07:11:41;100288.09;;;9.24;100.00
83733;BME280;73710;49.968;8.338;2023-11-19T07:14:07;100280.06;;;9.27;100.00
83733;BME280;73710;49.968;8.338;2023-11-19T07:16:34;100281.63;;;9.31;100.00
83733;BME280;73710;49.968;8.338;2023-11-19T07:19:01;100286.41;;;9.40;100.00
83733;BME280;73710;49.968;8.338;2023-11-19T07:21:26;100285.16;;;9.47;100.00
83733;BME280;73710;49.968;8.338;2023-11-19T07:23:56;100294.28;;;9.57;100.00
83733;BME280;73710;49.968;8.338;2023-11-19T07:26:22;100289.56;;;9.63;100.00
83733;BME280;73710;49.968;8.338;2023-11-19T07:28:51;100288.88;;;9.60;100.00
83733;BME280;73710;49.968;8.338;2023-11-19T07:31:16;100278.47;;;9.41;100.00
83733;BME280;73710;49.968;8.338;2023-11-19T07:33:44;100281.22;;;9.21;100.00
83733;BME280;73710;49.968;8.338;2023-11-19T07:36:10;100268.94;;;9.04;100.00
83733;BME280;73710;49.968;8.338;2023-11-19T07:38:36;100272.00;;;8.95;100.00
83733;BME280;73710;49.968;8.338;2023-11-19T07:41:02;100276.63;;;8.90;100.00
83733;BME280;73710;49.968;8.338;2023-11-19T07:43:27;100284.03;;;8.99;100.00
83733;BME280;73710;49.968;8.338;2023-11-19T07:45:53;100281.13;;;9.05;100.00
83733;BME280;73710;49.968;8.338;2023-11-19T07:48:18;100289.47;;;9.14;100.00
83733;BME280;73710;49.968;8.338;2023-11-19T07:50:52;100301.53;;;9.35;100.00
83733;BME280;73710;49.968;8.338;2023-11-19T07:53:18;100299.22;;;9.63;100.00
83733;BME280;73710;49.968;8.338;2023-11-19T07:55:43;100302.84;;;9.77;100.00
83733;BME280;73710;49.968;8.338;2023-11-19T07:58:10;100305.59;;;9.91;100.00
83733;BME280;73710;49.968;8.338;2023-11-19T08:00:35;100316.31;;;10.04;100.00
83733;BME280;73710;49.968;8.338;2023-11-19T08:03:01;100300.53;;;10.21;100.00
83733;BME280;73710;49.968;8.338;2023-11-19T08:05:26;100300.13;;;10.29;100.00
83733;BME280;73710;49.968;8.338;2023-11-19T08:07:52;100303.47;;;10.32;100.00
83733;BME280;73710;49.968;8.338;2023-11-19T08:10:19;100307.44;;;10.24;100.00
83733;BME280;73710;49.968;8.338;2023-11-19T08:12:44;100301.13;;;10.26;100.00
83733;BME280;73710;49.968;8.338;2023-11-19T08:15:10;100306.09;;;10.32;100.00
83733;BME280;73710;49.968;8.338;2023-11-19T08:17:36;100308.50;;;10.52;100.00
83733;BME280;73710;49.968;8.338;2023-11-19T08:20:01;100302.22;;;10.70;100.00
83733;BME280;73710;49.968;8.338;2023-11-19T08:22:27;100301.38;;;10.86;100.00
83733;BME280;73710;49.968;8.338;2023-11-19T08:24:52;100300.84;;;10.95;100.00
83733;BME280;73710;49.968;8.338;2023-11-19T08:27:18;100309.16;;;11.03;100.00
83733;BME280;73710;49.968;8.338;2023-11-19T08:29:43;100322.88;;;11.23;100.00
83733;BME280;73710;49.968;8.338;2023-11-19T08:32:08;100321.84;;;11.71;100.00
83733;BME280;73710;49.968;8.338;2023-11-19T08:34:34;100335.03;;;12.29;100.00
83733;BME280;73710;49.968;8.338;2023-11-19T08:36:59;100339.78;;;12.65;100.00
83733;BME280;73710;49.968;8.338;2023-11-19T08:39:25;100350.56;;;12.62;100.00
83733;BME280;73710;49.968;8.338;2023-11-19T08:41:50;100345.66;;;12.42;100.00
83733;BME280;73710;49.968;8.338;2023-11-19T08:44:16;100347.06;;;12.19;100.00
83733;BME280;73710;49.968;8.338;2023-11-19T08:46:48;100347.78;;;12.07;100.00
83733;BME280;73710;49.968;8.338;2023-11-19T08:49:14;100356.00;;;12.02;100.00
83733;BME280;73710;49.968;8.338;2023-11-19T08:51:40;100344.09;;;11.95;100.00
83733;BME280;73710;49.968;8.338;2023-11-19T08:54:05;100343.44;;;11.92;100.00
83733;BME280;73710;49.968;8.338;2023-11-19T08:56:31;100336.41;;;11.92;100.00
83733;BME280;73710;49.968;8.338;2023-11-19T08:58:58;100343.00;;;11.99;100.00
83733;BME280;73710;49.968;8.338;2023-11-19T09:01:23;100339.59;;;12.11;100.00
83733;BME280;73710;49.968;8.338;2023-11-19T09:03:50;100347.53;;;12.25;100.00
83733;BME280;73710;49.968;8.338;2023-11-19T09:06:15;100334.81;;;12.32;100.00
83733;BME280;73710;49.968;8.338;2023-11-19T09:08:42;100335.09;;;12.56;100.00
83733;BME280;73710;49.968;8.338;2023-11-19T09:11:08;100330.63;;;12.84;100.00
83733;BME280;73710;49.968;8.338;2023-11-19T09:13:37;100325.84;;;13.03;100.00
83733;BME280;73710;49.968;8.338;2023-11-19T09:16:03;100334.59;;;13.18;100.00
83733;BME280;73710;49.968;8.338;2023-11-19T09:18:31;100326.88;;;13.42;100.00
83733;BME280;73710;49.968;8.338;2023-11-19T09:20:57;100325.78;;;13.58;100.00
83733;BME280;73710;49.968;8.338;2023-11-19T09:23:23;100323.16;;;13.71;100.00
83733;BME280;73710;49.968;8.338;2023-11-19T09:25:50;100318.59;;;13.85;100.00
83733;BME280;73710;49.968;8.338;2023-11-19T09:28:15;100315.56;;;13.91;100.00
83733;BME280;73710;49.968;8.338;2023-11-19T09:30:41;100334.41;;;14.00;100.00
83733;BME280;73710;49.968;8.338;2023-11-19T09:33:06;100333.75;;;14.09;100.00
83733;BME280;73710;49.968;8.338;2023-11-19T09:35:32;100337.78;;;14.02;100.00
83733;BME280;73710;49.968;8.338;2023-11-19T09:37:58;100345.72;;;14.02;100.00
83733;BME280;73710;49.968;8.338;2023-11-19T09:40:24;100343.81;;;14.16;100.00
83733;BME280;73710;49.968;8.338;2023-11-19T09:42:50;100341.59;;;14.23;99.92
83733;BME280;73710;49.968;8.338;2023-11-19T09:45:17;100343.50;;;14.21;96.69
83733;BME280;73710;49.968;8.338;2023-11-19T09:47:44;100342.47;;;14.36;96.98
83733;BME280;73710;49.968;8.338;2023-11-19T09:50:15;100330.19;;;14.35;95.55
83733;BME280;73710;49.968;8.338;2023-11-19T09:52:41;100335.28;;;14.38;94.15
83733;BME280;73710;49.968;8.338;2023-11-19T09:55:07;100341.09;;;14.43;89.52
83733;BME280;73710;49.968;8.338;2023-11-19T09:57:34;100331.13;;;14.46;90.41
83733;BME280;73710;49.968;8.338;2023-11-19T10:00:03;100346.28;;;14.44;88.07
83733;BME280;73710;49.968;8.338;2023-11-19T10:02:31;100348.69;;;14.47;86.82
83733;BME280;73710;49.968;8.338;2023-11-19T10:04:59;100366.38;;;14.59;85.77
83733;BME280;73710;49.968;8.338;2023-11-19T10:07:28;100342.97;;;14.66;86.74
83733;BME280;73710;49.968;8.338;2023-11-19T10:09:53;100350.81;;;14.55;86.49
83733;BME280;73710;49.968;8.338;2023-11-19T10:12:18;100333.66;;;14.48;84.78
83733;BME280;73710;49.968;8.338;2023-11-19T10:14:45;100337.34;;;14.58;84.78
83733;BME280;73710;49.968;8.338;2023-11-19T10:17:11;100343.94;;;14.65;83.54
83733;BME280;73710;49.968;8.338;2023-11-19T10:19:36;100339.13;;;14.70;82.05
83733;BME280;73710;49.968;8.338;2023-11-19T10:22:05;100337.53;;;14.67;83.81
83733;BME280;73710;49.968;8.338;2023-11-19T10:24:34;100337.53;;;14.67;82.92
83733;BME280;73710;49.968;8.338;2023-11-19T10:27:02;100348.38;;;14.64;84.37
83733;BME280;73710;49.968;8.338;2023-11-19T10:29:31;100332.81;;;14.35;85.27
83733;BME280;73710;49.968;8.338;2023-11-19T10:31:58;100340.66;;;14.24;86.05
83733;BME280;73710;49.968;8.338;2023-11-19T10:34:27;100336.72;;;14.17;85.94
83733;BME280;73710;49.968;8.338;2023-11-19T10:36:52;100325.94;;;14.20;84.06
83733;BME280;73710;49.968;8.338;2023-11-19T10:39:18;100330.28;;;14.33;83.73
83733;BME280;73710;49.968;8.338;2023-11-19T10:41:43;100329.34;;;14.34;81.83
83733;BME280;73710;49.968;8.338;2023-11-19T10:44:09;100329.00;;;14.39;81.58
83733;BME280;73710;49.968;8.338;2023-11-19T10:46:39;100335.69;;;14.44;81.74
83733;BME280;73710;49.968;8.338;2023-11-19T10:49:06;100321.00;;;14.76;78.79
83733;BME280;73710;49.968;8.338;2023-11-19T10:51:32;100326.72;;;14.83;79.23
83733;BME280;73710;49.968;8.338;2023-11-19T10:54:02;100325.63;;;14.98;76.91
83733;BME280;73710;49.968;8.338;2023-11-19T10:56:30;100324.03;;;15.19;76.36
83733;BME280;73710;49.968;8.338;2023-11-19T10:58:56;100322.06;;;15.34;75.81
83733;BME280;73710;49.968;8.338;2023-11-19T11:01:27;100318.81;;;15.54;74.97
83733;BME280;73710;49.968;8.338;2023-11-19T11:03:54;100323.31;;;15.65;74.77
83733;BME280;73710;49.968;8.338;2023-11-19T11:06:22;100317.97;;;15.53;73.69
83733;BME280;73710;49.968;8.338;2023-11-19T11:08:48;100318.84;;;15.41;73.89
83733;BME280;73710;49.968;8.338;2023-11-19T11:11:15;100319.38;;;15.23;74.86
83733;BME280;73710;49.968;8.338;2023-11-19T11:13:43;100315.69;;;15.13;75.64
83733;BME280;73710;49.968;8.338;2023-11-19T11:16:09;100311.84;;;15.40;75.02
83733;BME280;73710;49.968;8.338;2023-11-19T11:18:36;100318.25;;;15.73;73.91
83733;BME280;73710;49.968;8.338;2023-11-19T11:21:22;100307.91;;;15.81;72.39
83733;BME280;73710;49.968;8.338;2023-11-19T11:31:51;100315.72;;;16.28;73.39
83733;BME280;73710;49.968;8.338;2023-11-19T11:34:38;100321.78;;;16.63;70.10
83733;BME280;73710;49.968;8.338;2023-11-19T11:39:49;100314.00;;;16.16;72.91
83733;BME280;73710;49.968;8.338;2023-11-19T11:45:00;100322.56;;;15.63;71.72
83733;BME280;73710;49.968;8.338;2023-11-19T11:50:22;100307.19;;;15.68;69.21
83733;BME280;73710;49.968;8.338;2023-11-19T11:57:57;100280.19;;;15.85;67.67
83733;BME280;73710;49.968;8.338;2023-11-19T12:00:30;100292.06;;;16.14;65.76
83733;BME280;73710;49.968;8.338;2023-11-19T12:02:57;100297.25;;;16.26;65.00
83733;BME280;73710;49.968;8.338;2023-11-19T12:05:24;100287.38;;;16.28;65.81
83733;BME280;73710;49.968;8.338;2023-11-19T12:08:06;100287.13;;;16.20;63.83
83733;BME280;73710;49.968;8.338;2023-11-19T12:10:37;100283.00;;;16.05;62.80
83733;BME280;73710;49.968;8.338;2023-11-19T12:13:08;100301.66;;;15.82;63.33
83733;BME280;73710;49.968;8.338;2023-11-19T12:18:27;100284.78;;;15.72;60.64
83733;BME280;73710;49.968;8.338;2023-11-19T12:20:53;100293.56;;;15.72;60.96
83733;BME280;73710;49.968;8.338;2023-11-19T12:23:18;100294.19;;;15.76;60.24
83733;BME280;73710;49.968;8.338;2023-11-19T12:25:44;100284.72;;;15.61;60.36
83733;BME280;73710;49.968;8.338;2023-11-19T12:28:15;100281.06;;;15.50;58.74
83733;BME280;73710;49.968;8.338;2023-11-19T12:30:44;100267.94;;;15.49;59.45
83733;BME280;73710;49.968;8.338;2023-11-19T12:33:12;100270.88;;;15.57;59.42
83733;BME280;73710;49.968;8.338;2023-11-19T12:35:44;100267.34;;;15.56;59.86
83733;BME280;73710;49.968;8.338;2023-11-19T12:38:25;100256.28;;;15.63;58.77
83733;BME280;73710;49.968;8.338;2023-11-19T12:41:05;100265.91;;;15.52;59.73
83733;BME280;73710;49.968;8.338;2023-11-19T12:43:31;100263.59;;;15.48;60.09
83733;BME280;73710;49.968;8.338;2023-11-19T12:45:56;100243.03;;;15.63;59.03
83733;BME280;73710;49.968;8.338;2023-11-19T12:48:22;100241.34;;;15.62;58.90
83733;BME280;73710;49.968;8.338;2023-11-19T12:50:54;100250.00;;;15.52;57.89
83733;BME280;73710;49.968;8.338;2023-11-19T12:53:25;100264.13;;;15.64;58.21
83733;BME280;73710;49.968;8.338;2023-11-19T12:55:51;100256.16;;;15.64;58.01
83733;BME280;73710;49.968;8.338;2023-11-19T12:58:34;100248.38;;;15.74;58.12
83733;BME280;73710;49.968;8.338;2023-11-19T13:01:05;100237.50;;;15.77;57.67
83733;BME280;73710;49.968;8.338;2023-11-19T13:03:35;100228.34;;;15.70;57.46
83733;BME280;73710;49.968;8.338;2023-11-19T13:06:05;100253.31;;;15.78;57.82
83733;BME280;73710;49.968;8.338;2023-11-19T13:08:43;100244.50;;;15.78;57.87
83733;BME280;73710;49.968;8.338;2023-11-19T13:11:10;100242.09;;;15.75;56.82
83733;BME280;73710;49.968;8.338;2023-11-19T13:14:04;100239.44;;;15.75;58.10
83733;BME280;73710;49.968;8.338;2023-11-19T13:16:30;100235.09;;;15.74;56.36
83733;BME280;73710;49.968;8.338;2023-11-19T13:18:56;100242.56;;;15.69;57.15
83733;BME280;73710;49.968;8.338;2023-11-19T13:21:23;100236.06;;;15.62;56.75
83733;BME280;73710;49.968;8.338;2023-11-19T13:23:48;100223.25;;;15.55;57.68
83733;BME280;73710;49.968;8.338;2023-11-19T13:26:14;100243.56;;;15.44;58.72
83733;BME280;73710;49.968;8.338;2023-11-19T13:28:39;100246.78;;;15.36;59.75
83733;BME280;73710;49.968;8.338;2023-11-19T13:31:05;100240.03;;;15.32;59.78
83733;BME280;73710;49.968;8.338;2023-11-19T13:33:30;100240.50;;;15.26;60.87
83733;BME280;73710;49.968;8.338;2023-11-19T13:35:56;100249.84;;;15.19;60.36
83733;BME280;73710;49.968;8.338;2023-11-19T13:38:22;100237.31;;;15.21;61.09
83733;BME280;73710;49.968;8.338;2023-11-19T13:40:49;100233.00;;;15.20;58.99
83733;BME280;73710;49.968;8.338;2023-11-19T13:43:14;100226.50;;;15.24;59.58
83733;BME280;73710;49.968;8.338;2023-11-19T13:45:40;100237.72;;;15.28;57.19
83733;BME280;73710;49.968;8.338;2023-11-19T13:48:05;100229.63;;;15.29;57.84
83733;BME280;73710;49.968;8.338;2023-11-19T13:50:31;100229.09;;;15.37;57.05
83733;BME280;73710;49.968;8.338;2023-11-19T13:52:57;100236.31;;;15.35;57.49
83733;BME280;73710;49.968;8.338;2023-11-19T13:55:22;100229.44;;;15.32;55.98
83733;BME280;73710;49.968;8.338;2023-11-19T13:57:48;100225.78;;;15.33;55.44
83733;BME280;73710;49.968;8.338;2023-11-19T14:00:14;100222.66;;;15.28;56.07
83733;BME280;73710;49.968;8.338;2023-11-19T14:02:46;100229.19;;;15.35;56.38
83733;BME280;73710;49.968;8.338;2023-11-19T14:05:12;100236.25;;;15.47;56.85
83733;BME280;73710;49.968;8.338;2023-11-19T14:07:39;100235.88;;;15.52;57.72
83733;BME280;73710;49.968;8.338;2023-11-19T14:10:05;100239.25;;;15.54;60.02
83733;BME280;73710;49.968;8.338;2023-11-19T14:12:32;100237.50;;;15.66;61.35
83733;BME280;73710;49.968;8.338;2023-11-19T14:14:58;100242.16;;;15.62;60.78
83733;BME280;73710;49.968;8.338;2023-11-19T14:17:23;100238.44;;;15.53;59.97
83733;BME280;73710;49.968;8.338;2023-11-19T14:19:50;100238.38;;;15.88;58.41
83733;BME280;73710;49.968;8.338;2023-11-19T14:22:16;100234.53;;;16.14;57.21
83733;BME280;73710;49.968;8.338;2023-11-19T14:24:41;100232.44;;;16.40;56.34
83733;BME280;73710;49.968;8.338;2023-11-19T14:27:08;100232.44;;;16.40;55.87
83733;BME280;73710;49.968;8.338;2023-11-19T14:29:34;100236.81;;;16.19;55.92
83733;BME280;73710;49.968;8.338;2023-11-19T14:32:03;100231.75;;;16.60;54.29
83733;BME280;73710;49.968;8.338;2023-11-19T14:34:30;100226.72;;;16.89;53.57
83733;BME280;73710;49.968;8.338;2023-11-19T14:36:56;100226.91;;;16.32;54.51
83733;BME280;73710;49.968;8.338;2023-11-19T14:39:21;100207.22;;;15.57;54.55
83733;BME280;73710;49.968;8.338;2023-11-19T14:41:46;100219.75;;;15.55;54.64
83733;BME280;73710;49.968;8.338;2023-11-19T14:44:12;100218.09;;;15.30;55.79
83733;BME280;73710;49.968;8.338;2023-11-19T14:46:37;100217.44;;;15.50;54.85
83733;BME280;73710;49.968;8.338;2023-11-19T14:49:03;100243.03;;;15.63;54.51
83733;BME280;73710;49.968;8.338;2023-11-19T14:51:36;100203.47;;;15.14;56.34
83733;BME280;73710;49.968;8.338;2023-11-19T14:54:06;100201.91;;;14.64;58.88
83733;BME280;73710;49.968;8.338;2023-11-19T14:56:32;100179.03;;;14.27;60.25
83733;BME280;73710;49.968;8.338;2023-11-19T14:58:57;100194.41;;;14.09;61.59
83733;BME280;73710;49.968;8.338;2023-11-19T15:01:24;100195.41;;;13.95;62.12
83733;BME280;73710;49.968;8.338;2023-11-19T15:03:49;100203.97;;;13.86;62.42
83733;BME280;73710;49.968;8.338;2023-11-19T15:06:15;100198.56;;;13.75;63.22
83733;BME280;73710;49.968;8.338;2023-11-19T15:08:41;100213.38;;;13.65;63.58
83733;BME280;73710;49.968;8.338;2023-11-19T15:11:07;100214.03;;;13.69;63.29
83733;BME280;73710;49.968;8.338;2023-11-19T15:13:35;100212.94;;;13.59;63.02
83733;BME280;73710;49.968;8.338;2023-11-19T15:16:03;100216.34;;;13.61;62.88
83733;BME280;73710;49.968;8.338;2023-11-19T15:18:31;100212.97;;;13.46;63.92
83733;BME280;73710;49.968;8.338;2023-11-19T15:20:57;100216.56;;;13.58;62.93
83733;BME280;73710;49.968;8.338;2023-11-19T15:23:22;100214.66;;;13.47;63.31
83733;BME280;73710;49.968;8.338;2023-11-19T15:25:48;100221.72;;;13.47;63.34
83733;BME280;73710;49.968;8.338;2023-11-19T15:28:14;100229.31;;;13.39;63.59
83733;BME280;73710;49.968;8.338;2023-11-19T15:30:40;100218.66;;;13.28;65.18
83733;BME280;73710;49.968;8.338;2023-11-19T15:33:05;100216.91;;;13.14;65.85
83733;BME280;73710;49.968;8.338;2023-11-19T15:35:30;100226.97;;;12.95;67.76
83733;BME280;73710;49.968;8.338;2023-11-19T15:37:56;100235.53;;;12.98;66.76
83733;BME280;73710;49.968;8.338;2023-11-19T15:40:21;100231.00;;;12.74;68.81
83733;BME280;73710;49.968;8.338;2023-11-19T15:42:47;100230.50;;;12.55;70.52
83733;BME280;73710;49.968;8.338;2023-11-19T15:45:14;100249.56;;;12.46;71.08
83733;BME280;73710;49.968;8.338;2023-11-19T15:47:41;100250.16;;;12.22;71.97
83733;BME280;73710;49.968;8.338;2023-11-19T15:50:07;100263.06;;;12.13;73.20
83733;BME280;73710;49.968;8.338;2023-11-19T15:52:35;100259.97;;;12.06;74.13
83733;BME280;73710;49.968;8.338;2023-11-19T15:55:00;100257.69;;;11.86;75.25
83733;BME280;73710;49.968;8.338;2023-11-19T15:57:25;100257.22;;;11.80;76.02
83733;BME280;73710;49.968;8.338;2023-11-19T15:59:51;100270.09;;;11.84;76.49
83733;BME280;73710;49.968;8.338;2023-11-19T16:02:17;100262.00;;;11.87;76.40
83733;BME280;73710;49.968;8.338;2023-11-19T16:04:43;100269.16;;;11.85;76.16
83733;BME280;73710;49.968;8.338;2023-11-19T16:07:13;100254.59;;;11.80;75.63
83733;BME280;73710;49.968;8.338;2023-11-19T16:09:38;100259.75;;;11.95;74.36
83733;BME280;73710;49.968;8.338;2023-11-19T16:12:04;100260.41;;;11.71;75.49
83733;BME280;73710;49.968;8.338;2023-11-19T16:14:29;100264.75;;;11.56;76.00
83733;BME280;73710;49.968;8.338;2023-11-19T16:16:55;100258.53;;;11.43;76.61
83733;BME280;73710;49.968;8.338;2023-11-19T16:19:20;100258.28;;;11.62;75.51
83733;BME280;73710;49.968;8.338;2023-11-19T16:21:46;100259.06;;;11.64;75.27
83733;BME280;73710;49.968;8.338;2023-11-19T16:24:11;100259.53;;;11.70;74.81
83733;BME280;73710;49.968;8.338;2023-11-19T16:26:36;100271.16;;;11.52;75.70
83733;BME280;73710;49.968;8.338;2023-11-19T16:29:05;100266.63;;;11.54;75.58
83733;BME280;73710;49.968;8.338;2023-11-19T16:31:30;100274.09;;;11.32;76.51
83733;BME280;73710;49.968;8.338;2023-11-19T16:33:56;100279.78;;;11.10;78.68
83733;BME280;73710;49.968;8.338;2023-11-19T16:36:21;100284.69;;;11.16;77.30
83733;BME280;73710;49.968;8.338;2023-11-19T16:38:48;100293.09;;;11.07;78.44
83733;BME280;73710;49.968;8.338;2023-11-19T16:41:20;100294.88;;;11.07;79.79
83733;BME280;73710;49.968;8.338;2023-11-19T16:43:47;100291.78;;;11.30;77.83
83733;BME280;73710;49.968;8.338;2023-11-19T16:46:14;100302.13;;;11.33;77.36
83733;BME280;73710;49.968;8.338;2023-11-19T16:48:40;100305.75;;;11.46;76.92
83733;BME280;73710;49.968;8.338;2023-11-19T16:51:11;100308.63;;;11.57;75.80
83733;BME280;73710;49.968;8.338;2023-11-19T16:53:49;100310.88;;;11.63;74.52
83733;BME280;73710;49.968;8.338;2023-11-19T16:56:15;100312.34;;;11.83;73.40
83733;BME280;73710;49.968;8.338;2023-11-19T16:58:42;100309.84;;;11.95;73.56
83733;BME280;73710;49.968;8.338;2023-11-19T17:01:10;100295.53;;;11.85;73.42
83733;BME280;73710;49.968;8.338;2023-11-19T17:03:39;100306.56;;;11.92;72.60
83733;BME280;73710;49.968;8.338;2023-11-19T17:06:05;100309.19;;;12.06;70.89
83733;BME280;73710;49.968;8.338;2023-11-19T17:08:31;100308.56;;;12.16;70.26
83733;BME280;73710;49.968;8.338;2023-11-19T17:11:04;100304.69;;;12.08;70.63
83733;BME280;73710;49.968;8.338;2023-11-19T17:13:32;100303.44;;;11.99;71.30
83733;BME280;73710;49.968;8.338;2023-11-19T17:15:58;100300.78;;;11.85;71.97
83733;BME280;73710;49.968;8.338;2023-11-19T17:18:23;100297.19;;;11.72;72.69
83733;BME280;73710;49.968;8.338;2023-11-19T17:20:50;100309.44;;;11.73;72.77
83733;BME280;73710;49.968;8.338;2023-11-19T17:23:15;100305.19;;;11.41;74.26
83733;BME280;73710;49.968;8.338;2023-11-19T17:25:41;100303.47;;;11.40;74.63
83733;BME280;73710;49.968;8.338;2023-11-19T17:28:07;100303.50;;;11.54;73.66
83733;BME280;73710;49.968;8.338;2023-11-19T17:30:34;100291.44;;;11.66;72.68
83733;BME280;73710;49.968;8.338;2023-11-19T17:33:00;100292.00;;;11.71;72.49
83733;BME280;73710;49.968;8.338;2023-11-19T17:35:26;100316.50;;;11.87;71.88
83733;BME280;73710;49.968;8.338;2023-11-19T17:37:51;100318.78;;;11.93;71.51
83733;BME280;73710;49.968;8.338;2023-11-19T17:40:17;100314.91;;;11.84;71.64
83733;BME280;73710;49.968;8.338;2023-11-19T17:42:43;100326.41;;;11.83;72.33
83733;BME280;73710;49.968;8.338;2023-11-19T17:45:09;100320.34;;;11.67;73.11
83733;BME280;73710;49.968;8.338;2023-11-19T17:47:35;100323.72;;;11.69;73.00
83733;BME280;73710;49.968;8.338;2023-11-19T17:50:00;100313.94;;;11.71;74.10
83733;BME280;73710;49.968;8.338;2023-11-19T17:52:28;100318.19;;;11.58;74.78
83733;BME280;73710;49.968;8.338;2023-11-19T17:54:53;100321.59;;;11.60;75.40
83733;BME280;73710;49.968;8.338;2023-11-19T17:57:18;100330.81;;;11.53;76.34
83733;BME280;73710;49.968;8.338;2023-11-19T17:59:44;100329.66;;;11.43;77.82
83733;BME280;73710;49.968;8.338;2023-11-19T18:02:12;100317.09;;;11.32;78.44
83733;BME280;73710;49.968;8.338;2023-11-19T18:04:37;100319.22;;;11.26;78.74
83733;BME280;73710;49.968;8.338;2023-11-19T18:07:03;100325.59;;;11.22;79.98
83733;BME280;73710;49.968;8.338;2023-11-19T18:09:29;100329.00;;;11.24;79.93
83733;BME280;73710;49.968;8.338;2023-11-19T18:11:54;100319.59;;;11.20;80.12
83733;BME280;73710;49.968;8.338;2023-11-19T18:14:20;100327.13;;;11.26;79.67